createdAt,value
2019-02-18T00:01:50.795Z,57.70
2019-02-18T00:04:58.415Z,62.83
2019-02-18T00:08:06.075Z,56.87
2019-02-18T00:11:13.671Z,57.27
2019-02-18T00:14:21.406Z,62.10
2019-02-18T00:17:28.953Z,53.70
2019-02-18T00:20:36.589Z,60.90
2019-02-18T00:23:44.101Z,58.60
2019-02-18T00:26:51.799Z,56.03
2019-02-18T00:29:59.301Z,59.13
2019-02-18T00:33:06.841Z,59.13
2019-02-18T00:36:14.457Z,63.43
2019-02-18T00:39:22.077Z,62.23
2019-02-18T00:42:29.678Z,59.57
2019-02-18T00:45:38.536Z,61.57
2019-02-18T00:48:46.155Z,59.40
2019-02-18T00:51:53.800Z,62.07
2019-02-18T00:55:01.335Z,61.37
2019-02-18T00:58:08.861Z,54.03
2019-02-18T01:01:16.352Z,60.00
2019-02-18T01:04:23.858Z,61.40
2019-02-18T01:07:34.891Z,61.23
2019-02-18T01:10:41.607Z,58.03
2019-02-18T01:13:49.157Z,58.70
2019-02-18T01:16:56.635Z,56.77
2019-02-18T01:20:04.636Z,56.77
2019-02-18T01:23:12.166Z,54.07
2019-02-18T01:26:19.708Z,58.53
2019-02-18T01:29:27.201Z,53.10
2019-02-18T01:32:34.687Z,55.07
2019-02-18T01:35:42.253Z,60.40
2019-02-18T01:38:49.770Z,55.60
2019-02-18T01:41:57.277Z,55.00
2019-02-18T01:45:05.351Z,55.97
2019-02-18T01:48:13.093Z,55.33
2019-02-18T01:51:20.727Z,52.50
2019-02-18T01:54:28.259Z,56.57
2019-02-18T01:57:35.790Z,56.10
2019-02-18T02:00:43.289Z,54.00
2019-02-18T02:03:51.344Z,56.13
2019-02-18T02:06:58.955Z,56.30
2019-02-18T02:10:07.443Z,54.27
2019-02-18T02:13:32.161Z,54.20
2019-02-18T02:16:39.795Z,49.37
2019-02-18T02:19:47.531Z,40.70
2019-02-18T02:22:55.165Z,41.80
2019-02-18T02:26:02.801Z,43.17
2019-02-18T02:29:10.519Z,48.70
2019-02-18T02:32:18.183Z,47.07
2019-02-18T02:35:26.236Z,50.67
2019-02-18T02:38:33.827Z,55.30
2019-02-18T02:41:41.673Z,58.23
2019-02-18T02:44:49.273Z,50.00
2019-02-18T02:47:57.104Z,62.63
2019-02-18T02:51:04.675Z,64.60
2019-02-18T02:54:12.279Z,63.00
2019-02-18T02:57:19.977Z,56.83
2019-02-18T03:00:27.435Z,62.30
2019-02-18T03:03:35.001Z,63.40
2019-02-18T03:06:42.595Z,66.17
2019-02-18T03:09:50.169Z,60.73
2019-02-18T03:12:57.665Z,62.87
2019-02-18T03:16:05.480Z,53.27
2019-02-18T03:19:13.361Z,65.50
2019-02-18T03:22:20.961Z,61.93
2019-02-18T03:25:29.759Z,78.53
2019-02-18T03:29:16.704Z,84.13
2019-02-18T03:32:24.610Z,94.97
2019-02-18T03:35:32.128Z,85.97
2019-02-18T03:38:39.695Z,119.07
2019-02-18T03:41:47.204Z,127.53
2019-02-18T03:44:55.011Z,123.27
2019-02-18T03:48:02.657Z,132.80
2019-02-18T03:51:10.874Z,137.30
2019-02-18T03:54:18.360Z,116.63
2019-02-18T03:57:26.325Z,146.43
2019-02-18T04:00:34.004Z,141.07
2019-02-18T04:03:41.633Z,179.00
2019-02-18T04:06:49.206Z,180.23
2019-02-18T04:09:56.823Z,129.50
2019-02-18T04:13:04.438Z,58.90
2019-02-18T04:16:11.991Z,71.03
2019-02-18T04:19:19.583Z,35.50
2019-02-18T04:22:27.212Z,67.03
2019-02-18T04:25:34.875Z,63.67
2019-02-18T04:28:42.478Z,50.80
2019-02-18T04:31:49.972Z,57.53
2019-02-18T04:34:57.527Z,81.40
2019-02-18T04:38:05.118Z,61.13
2019-02-18T04:41:12.638Z,53.50
2019-02-18T04:44:20.199Z,44.60
2019-02-18T04:47:27.769Z,43.60
2019-02-18T04:50:35.221Z,45.27
2019-02-18T04:53:42.772Z,46.10
2019-02-18T04:56:50.268Z,44.10
2019-02-18T04:59:57.856Z,50.27
2019-02-18T05:03:05.380Z,45.63
2019-02-18T05:06:13.027Z,45.17
2019-02-18T05:09:20.544Z,55.87
2019-02-18T05:12:28.091Z,87.07
2019-02-18T05:15:35.631Z,68.20
2019-02-18T05:18:43.089Z,44.43
2019-02-18T05:21:50.704Z,55.83
2019-02-18T05:24:58.321Z,53.67
2019-02-18T05:28:05.960Z,52.20
2019-02-18T05:31:13.460Z,50.13
2019-02-18T05:34:21.624Z,68.67
2019-02-18T05:37:31.117Z,87.33
2019-02-18T05:40:39.787Z,75.27
2019-02-18T05:43:47.466Z,70.57
2019-02-18T05:46:55.160Z,70.33
2019-02-18T05:50:02.764Z,73.60
2019-02-18T05:53:10.410Z,63.37
2019-02-18T05:56:17.932Z,69.37
2019-02-18T05:59:25.671Z,55.90
2019-02-18T06:02:33.315Z,65.83
2019-02-18T06:05:40.860Z,64.87
2019-02-18T06:08:48.469Z,69.47
2019-02-18T06:11:56.058Z,42.37
2019-02-18T06:15:04.474Z,54.23
2019-02-18T06:18:12.280Z,55.00
2019-02-18T06:21:20.287Z,73.50
2019-02-18T06:24:27.963Z,74.40
2019-02-18T06:27:35.456Z,74.40
2019-02-18T06:30:44.987Z,67.43
2019-02-18T06:33:52.591Z,73.83
2019-02-18T06:37:00.240Z,67.37
2019-02-18T06:40:08.717Z,72.20
2019-02-18T06:43:16.396Z,96.30
2019-02-18T06:46:30.822Z,95.03
2019-02-18T06:49:38.323Z,77.37
2019-02-18T06:52:46.103Z,82.83
2019-02-18T06:55:53.760Z,69.50
2019-02-18T06:59:09.486Z,54.20
2019-02-18T07:02:32.335Z,64.43
2019-02-18T07:05:44.358Z,57.47
2019-02-18T07:09:03.924Z,41.10
2019-02-18T07:12:16.394Z,58.93
2019-02-18T07:15:24.098Z,63.40
2019-02-18T07:18:31.727Z,57.13
2019-02-18T07:21:39.270Z,51.27
2019-02-18T07:24:47.154Z,67.20
2019-02-18T07:27:54.792Z,85.07
2019-02-18T07:31:02.450Z,76.20
2019-02-18T07:34:10.434Z,77.53
2019-02-18T07:37:19.633Z,85.40
2019-02-18T07:40:28.122Z,84.30
2019-02-18T07:43:35.704Z,100.77
2019-02-18T07:46:43.271Z,97.57
2019-02-18T07:49:50.931Z,85.60
2019-02-18T07:52:58.592Z,78.53
2019-02-18T07:56:06.368Z,81.57
2019-02-18T07:59:13.929Z,85.30
2019-02-18T08:02:21.627Z,83.13
2019-02-18T08:05:29.226Z,79.07
2019-02-18T08:08:36.875Z,84.03
2019-02-18T08:11:44.450Z,84.90
2019-02-18T08:14:52.076Z,89.87
2019-02-18T08:17:59.836Z,96.10
2019-02-18T08:21:06.701Z,112.57
2019-02-18T08:24:14.351Z,111.50
2019-02-18T08:27:22.031Z,102.63
2019-02-18T08:30:29.650Z,111.87
2019-02-18T08:33:37.228Z,99.77
2019-02-18T08:36:45.111Z,102.50
2019-02-18T08:39:52.708Z,95.00
2019-02-18T08:43:00.371Z,78.70
2019-02-18T08:46:07.944Z,70.20
2019-02-18T08:49:15.614Z,58.33
2019-02-18T08:52:23.260Z,60.07
2019-02-18T08:55:30.776Z,72.73
2019-02-18T08:58:38.363Z,68.20
2019-02-18T09:01:47.598Z,63.50
2019-02-18T09:04:55.288Z,57.77
2019-02-18T09:08:02.840Z,61.27
2019-02-18T09:11:10.431Z,63.03
2019-02-18T09:14:18.066Z,68.87
2019-02-18T09:17:25.677Z,67.37
2019-02-18T09:20:33.471Z,58.77
2019-02-18T09:24:02.975Z,57.17
2019-02-18T09:27:10.606Z,56.80
2019-02-18T09:30:20.440Z,50.40
2019-02-18T09:33:27.970Z,55.67
2019-02-18T09:36:35.790Z,48.30
2019-02-18T09:39:43.376Z,47.23
2019-02-18T09:42:50.970Z,42.20
2019-02-18T09:45:58.673Z,38.40
2019-02-18T09:49:06.395Z,38.03
2019-02-18T09:52:14.092Z,39.20
2019-02-18T09:55:21.750Z,26.77
2019-02-18T09:58:29.477Z,25.53
2019-02-18T10:01:37.417Z,28.53
2019-02-18T10:04:45.108Z,25.20
2019-02-18T10:07:52.908Z,28.67
2019-02-18T10:11:00.933Z,27.20
2019-02-18T10:14:08.477Z,29.90
2019-02-18T10:17:16.563Z,27.03
2019-02-18T10:20:24.095Z,30.30
2019-02-18T10:23:31.624Z,29.50
2019-02-18T10:26:39.211Z,35.73
2019-02-18T10:29:46.817Z,31.30
2019-02-18T10:32:54.463Z,28.20
2019-02-18T10:36:02.123Z,28.63
2019-02-18T10:39:09.969Z,32.63
2019-02-18T10:42:18.939Z,29.40
2019-02-18T10:45:26.858Z,30.17
2019-02-18T10:48:34.493Z,33.20
2019-02-18T10:51:42.189Z,33.30
2019-02-18T10:54:50.369Z,30.50
2019-02-18T10:57:58.043Z,32.97
2019-02-18T11:01:05.690Z,33.30
2019-02-18T11:04:14.993Z,32.37
2019-02-18T11:07:22.613Z,32.50
2019-02-18T11:10:31.524Z,34.27
2019-02-18T11:13:39.134Z,33.97
2019-02-18T11:16:47.014Z,34.00
2019-02-18T11:19:54.847Z,32.83
2019-02-18T11:23:02.365Z,33.60
2019-02-18T11:26:10.042Z,34.07
2019-02-18T11:29:17.797Z,31.27
2019-02-18T11:32:25.858Z,30.53
2019-02-18T11:35:33.945Z,36.33
2019-02-18T11:38:41.593Z,36.60
2019-02-18T11:41:49.103Z,34.27
2019-02-18T11:44:56.752Z,34.53
2019-02-18T11:48:06.212Z,35.27
2019-02-18T11:51:13.782Z,34.43
2019-02-18T11:54:21.311Z,32.07
2019-02-18T11:57:31.494Z,32.43
2019-02-18T12:00:38.157Z,29.30
2019-02-18T12:03:45.745Z,27.10
2019-02-18T12:06:53.466Z,30.53
2019-02-18T12:10:01.037Z,27.50
2019-02-18T12:13:08.986Z,24.23
2019-02-18T12:16:16.603Z,28.20
2019-02-18T12:19:24.203Z,27.03
2019-02-18T12:22:32.110Z,30.87
2019-02-18T12:25:39.705Z,24.97
2019-02-18T12:28:47.372Z,29.00
2019-02-18T12:31:54.987Z,46.70
2019-02-18T12:35:02.582Z,36.63
2019-02-18T12:38:10.259Z,25.33
2019-02-18T12:41:17.841Z,24.70
2019-02-18T12:44:27.502Z,21.67
2019-02-18T12:47:35.093Z,28.30
2019-02-18T12:50:42.866Z,37.60
2019-02-18T12:53:51.238Z,50.40
2019-02-18T12:57:00.009Z,37.37
2019-02-18T13:00:09.514Z,34.13
2019-02-18T13:03:18.095Z,30.47
2019-02-18T13:06:26.021Z,27.17
2019-02-18T13:09:34.735Z,25.67
2019-02-18T13:12:42.293Z,27.10
2019-02-18T13:15:49.955Z,30.30
2019-02-18T13:18:57.646Z,29.20
2019-02-18T13:22:05.129Z,24.87
2019-02-18T13:25:12.883Z,25.30
2019-02-18T13:28:20.483Z,23.13
2019-02-18T13:31:28.230Z,24.83
2019-02-18T13:34:35.883Z,27.27
2019-02-18T13:37:43.601Z,23.83
2019-02-18T13:40:51.200Z,24.10
2019-02-18T13:43:58.851Z,23.67
2019-02-18T13:47:06.636Z,24.07
2019-02-18T13:50:14.682Z,24.30
2019-02-18T13:53:22.211Z,27.00
2019-02-18T13:56:30.865Z,24.03
2019-02-18T13:59:38.521Z,26.17
2019-02-18T14:02:46.219Z,25.87
2019-02-18T14:05:53.717Z,25.33
2019-02-18T14:09:01.332Z,24.27
2019-02-18T14:12:15.961Z,28.87
2019-02-18T14:15:19.624Z,25.53
2019-02-18T14:18:27.365Z,26.27
2019-02-18T14:21:34.892Z,31.00
2019-02-18T14:24:42.851Z,36.13
2019-02-18T14:27:50.501Z,33.80
2019-02-18T14:30:58.601Z,31.07
2019-02-18T14:34:07.072Z,29.77
2019-02-18T14:37:14.642Z,30.30
2019-02-18T14:40:22.658Z,28.47
2019-02-18T14:43:30.241Z,30.73
2019-02-18T14:46:37.869Z,30.17
2019-02-18T14:49:45.552Z,30.37
2019-02-18T14:52:53.735Z,34.10
2019-02-18T14:56:01.687Z,34.20
2019-02-18T14:59:09.647Z,38.73
2019-02-18T15:02:17.334Z,46.53
2019-02-18T15:05:24.884Z,41.97
2019-02-18T15:08:32.537Z,41.60
2019-02-18T15:11:40.143Z,42.63
2019-02-18T15:14:47.705Z,32.50
2019-02-18T15:17:55.315Z,36.37
2019-02-18T15:21:03.193Z,36.80
2019-02-18T15:24:10.767Z,46.90
2019-02-18T15:27:18.408Z,44.57
2019-02-18T15:30:26.437Z,47.80
2019-02-18T15:33:34.439Z,61.70
2019-02-18T15:36:42.087Z,59.67
2019-02-18T15:39:49.713Z,61.40
2019-02-18T15:42:57.434Z,54.80
2019-02-18T15:46:05.129Z,45.53
2019-02-18T15:49:12.736Z,38.07
2019-02-18T15:52:20.380Z,33.87
2019-02-18T15:55:28.220Z,34.80
2019-02-18T15:58:35.785Z,45.10
2019-02-18T16:01:43.476Z,55.90
2019-02-18T16:04:51.459Z,72.70
2019-02-18T16:07:59.954Z,74.00
2019-02-18T16:11:08.032Z,76.60
2019-02-18T16:14:16.280Z,68.63
2019-02-18T16:17:24.454Z,72.67
2019-02-18T16:20:32.285Z,70.37
2019-02-18T16:23:39.985Z,89.13
2019-02-18T16:26:47.709Z,85.93
2019-02-18T16:29:55.721Z,130.67
2019-02-18T16:33:03.367Z,130.17
2019-02-18T16:36:11.370Z,143.00
2019-02-18T16:39:19.245Z,142.07
2019-02-18T16:42:26.993Z,127.83
2019-02-18T16:45:35.149Z,93.33
2019-02-18T16:48:43.339Z,97.80
2019-02-18T16:51:51.083Z,118.43
2019-02-18T16:54:59.005Z,107.37
2019-02-18T16:58:08.914Z,112.27
2019-02-18T17:01:17.311Z,123.47
2019-02-18T17:04:27.302Z,123.97
2019-02-18T17:07:34.394Z,114.73
2019-02-18T17:10:42.039Z,99.97
2019-02-18T17:13:50.855Z,106.50
2019-02-18T17:16:58.617Z,130.50
2019-02-18T17:20:06.883Z,137.70
2019-02-18T17:23:14.543Z,85.93
2019-02-18T17:26:22.221Z,88.17
2019-02-18T17:29:29.851Z,115.77
2019-02-18T17:32:37.530Z,105.37
2019-02-18T17:35:45.494Z,94.13
2019-02-18T17:38:53.229Z,95.67
2019-02-18T17:42:00.941Z,89.03
2019-02-18T17:45:10.388Z,70.70
2019-02-18T17:48:17.973Z,59.10
2019-02-18T17:51:25.971Z,61.60
2019-02-18T17:54:33.821Z,55.37
2019-02-18T17:57:41.615Z,53.87
2019-02-18T18:00:51.267Z,52.60
2019-02-18T18:03:59.003Z,51.90
2019-02-18T18:07:07.040Z,57.20
2019-02-18T18:10:15.020Z,66.77
2019-02-18T18:13:25.140Z,62.27
2019-02-18T18:16:32.027Z,64.60
2019-02-18T18:19:39.680Z,67.50
2019-02-18T18:22:47.330Z,59.63
2019-02-18T18:25:55.224Z,59.40
2019-02-18T18:29:02.846Z,54.50
2019-02-18T18:32:10.482Z,72.07
2019-02-18T18:35:18.111Z,76.40
2019-02-18T18:38:25.645Z,56.40
2019-02-18T18:41:33.214Z,56.53
2019-02-18T18:44:40.979Z,60.90
2019-02-18T18:47:48.772Z,61.17
2019-02-18T18:50:56.436Z,54.13
2019-02-18T18:54:05.248Z,63.03
2019-02-18T18:57:12.900Z,61.73
2019-02-18T19:00:23.495Z,58.97
2019-02-18T19:03:31.045Z,58.20
2019-02-18T19:06:40.102Z,61.23
2019-02-18T19:09:47.770Z,60.27
2019-02-18T19:12:55.366Z,63.03
2019-02-18T19:16:02.988Z,66.13
2019-02-18T19:19:10.644Z,75.70
2019-02-18T19:22:18.164Z,64.03
2019-02-18T19:25:26.515Z,74.23
2019-02-18T19:28:34.434Z,74.40
2019-02-18T19:31:42.945Z,68.50
2019-02-18T19:34:50.464Z,66.40
2019-02-18T19:37:58.689Z,63.90
2019-02-18T19:41:06.221Z,69.50
2019-02-18T19:44:13.862Z,79.43
2019-02-18T19:47:21.597Z,83.10
2019-02-18T19:50:29.219Z,93.33
2019-02-18T19:53:36.748Z,87.27
2019-02-18T19:56:44.301Z,89.70
2019-02-18T19:59:51.937Z,80.90
2019-02-18T20:02:59.484Z,72.47
2019-02-18T20:06:07.222Z,67.47
2019-02-18T20:09:16.164Z,66.77
2019-02-18T20:12:24.126Z,57.23
2019-02-18T20:15:31.809Z,59.20
2019-02-18T20:18:39.441Z,56.00
2019-02-18T20:21:47.712Z,58.50
2019-02-18T20:24:55.654Z,56.60
2019-02-18T20:28:03.217Z,57.97
2019-02-18T20:31:10.766Z,43.27
2019-02-18T20:34:18.340Z,52.60
2019-02-18T20:37:25.892Z,52.37
2019-02-18T20:40:33.434Z,58.70
2019-02-18T20:43:41.076Z,58.70
2019-02-18T20:46:49.985Z,59.90
2019-02-18T20:49:57.528Z,59.40
2019-02-18T20:53:05.097Z,70.97
2019-02-18T20:56:12.830Z,80.33
2019-02-18T20:59:20.738Z,83.67
2019-02-18T21:02:28.425Z,76.23
2019-02-18T21:05:35.982Z,74.47
2019-02-18T21:08:43.574Z,66.07
2019-02-18T21:11:51.242Z,69.40
2019-02-18T21:14:58.868Z,74.23
2019-02-18T21:18:06.561Z,70.10
2019-02-18T21:21:14.065Z,66.07
2019-02-18T21:24:21.635Z,65.03
2019-02-18T21:27:29.320Z,66.80
2019-02-18T21:30:36.918Z,77.90
2019-02-18T21:33:44.837Z,62.43
2019-02-18T21:36:52.689Z,49.60
2019-02-18T21:40:02.606Z,50.57
2019-02-18T21:43:10.286Z,59.50
2019-02-18T21:46:17.790Z,54.13
2019-02-18T21:49:25.642Z,57.10
2019-02-18T21:52:33.282Z,52.60
2019-02-18T21:55:41.176Z,60.40
2019-02-18T21:58:48.848Z,55.90
2019-02-18T22:01:56.460Z,52.33
2019-02-18T22:05:04.464Z,50.00
2019-02-18T22:08:12.670Z,49.60
2019-02-18T22:11:20.530Z,50.20
2019-02-18T22:14:33.343Z,61.10
2019-02-18T22:17:39.134Z,56.40
2019-02-18T22:20:46.698Z,48.40
2019-02-18T22:23:54.327Z,57.57
2019-02-18T22:27:01.997Z,61.57
2019-02-18T22:30:11.295Z,58.80
2019-02-18T22:33:18.864Z,66.17
2019-02-18T22:36:26.636Z,77.40
2019-02-18T22:39:34.188Z,87.30
2019-02-18T22:42:41.731Z,84.03
2019-02-18T22:45:49.388Z,81.77
2019-02-18T22:48:56.908Z,85.07
2019-02-18T22:52:04.909Z,96.30
2019-02-18T22:55:12.692Z,96.23
2019-02-18T22:58:20.341Z,91.73
2019-02-18T23:01:28.448Z,76.20
2019-02-18T23:04:36.040Z,67.60
2019-02-18T23:07:43.686Z,63.23
2019-02-18T23:10:51.490Z,63.23
2019-02-18T23:13:59.532Z,56.00
2019-02-18T23:17:07.062Z,55.77
2019-02-18T23:20:14.686Z,48.73
2019-02-18T23:23:22.982Z,47.43
2019-02-18T23:26:30.571Z,44.67
2019-02-18T23:29:38.155Z,42.30
2019-02-18T23:32:46.152Z,42.93
2019-02-18T23:35:53.940Z,44.20
2019-02-18T23:39:01.639Z,42.63
2019-02-18T23:42:10.738Z,42.07
2019-02-18T23:45:19.634Z,39.63
2019-02-18T23:48:27.199Z,43.20
2019-02-18T23:51:34.661Z,40.80
2019-02-18T23:54:42.290Z,45.30
2019-02-18T23:57:49.953Z,42.90
